createdAt,value
2019-03-04T00:00:26.075Z,82.80
2019-03-04T00:01:29.788Z,81.50
2019-03-04T00:06:15.964Z,83.00
2019-03-04T00:09:33.436Z,83.30
2019-03-04T00:17:27.028Z,84.70
2019-03-04T00:30:21.362Z,84.60
2019-03-04T00:46:56.208Z,84.30
2019-03-04T00:50:00.882Z,82.60
2019-03-04T00:52:41.514Z,82.70
2019-03-04T00:55:26.924Z,81.90
2019-03-04T00:58:08.598Z,81.30
2019-03-04T01:41:58.150Z,76.60
2019-03-04T01:44:51.742Z,75.50
2019-03-04T01:47:32.954Z,73.60
2019-03-04T01:50:07.952Z,73.00
2019-03-04T01:52:32.383Z,72.20
2019-03-04T01:55:10.789Z,71.40
2019-03-04T01:57:47.834Z,71.40
2019-03-04T02:00:33.564Z,70.40
2019-03-04T02:06:08.481Z,70.40
2019-03-04T02:11:37.373Z,69.70
2019-03-04T02:14:08.739Z,69.90
2019-03-04T02:16:39.193Z,69.60
2019-03-04T02:19:12.696Z,69.70
2019-03-04T02:21:43.376Z,70.50
2019-03-04T02:24:34.515Z,70.10
2019-03-04T02:27:12.808Z,70.60
2019-03-04T02:30:24.267Z,70.30
2019-03-04T02:33:06.050Z,70.30
2019-03-04T02:36:15.788Z,70.80
2019-03-04T02:41:35.525Z,71.50
2019-03-04T02:44:15.157Z,71.60
2019-03-04T02:46:57.632Z,73.00
2019-03-04T02:50:19.628Z,73.40
2019-03-04T02:56:09.963Z,73.00
2019-03-04T04:08:56.065Z,78.10
2019-03-04T04:11:29.928Z,77.90
2019-03-04T04:35:20.256Z,77.20
2019-03-04T04:41:30.602Z,76.20
2019-03-04T04:44:12.586Z,76.00
2019-03-04T04:47:38.759Z,75.50
2019-03-04T05:12:38.181Z,72.80
2019-03-04T05:15:21.269Z,70.60
2019-03-04T05:18:00.514Z,68.70
2019-03-04T05:23:38.092Z,68.50
2019-03-04T05:26:07.277Z,77.80
2019-03-04T05:28:38.787Z,88.70
2019-03-04T05:31:08.037Z,90.90
2019-03-04T05:33:49.950Z,91.20
2019-03-04T05:36:23.219Z,91.10
2019-03-04T05:42:41.221Z,91.10
2019-03-04T06:01:21.195Z,86.20
2019-03-04T06:25:07.414Z,78.90
2019-03-04T07:14:31.000Z,81.60
2019-03-04T07:17:16.882Z,80.10
2019-03-04T07:29:45.894Z,81.30
2019-03-04T07:35:18.199Z,82.80
2019-03-04T07:37:47.270Z,85.00
2019-03-04T07:40:25.165Z,85.90
2019-03-04T07:42:54.719Z,87.50
2019-03-04T07:45:24.966Z,89.50
2019-03-04T07:47:53.906Z,90.70
2019-03-04T07:50:22.664Z,91.10
2019-03-04T07:52:54.389Z,91.50
2019-03-04T07:55:23.261Z,91.80
2019-03-04T07:57:51.951Z,91.70
2019-03-04T08:00:21.975Z,92.00
2019-03-04T08:02:50.928Z,92.40
2019-03-04T08:05:19.775Z,92.60
2019-03-04T08:07:56.956Z,93.40
2019-03-04T08:10:51.668Z,93.40
2019-03-04T08:13:42.008Z,93.10
2019-03-04T08:16:12.021Z,93.30
2019-03-04T08:18:40.923Z,94.00
2019-03-04T08:21:11.413Z,93.70
2019-03-04T08:23:42.299Z,93.20
2019-03-04T08:26:12.153Z,93.10
2019-03-04T08:28:42.500Z,93.00
2019-03-04T08:31:12.609Z,93.10
2019-03-04T08:33:41.575Z,93.00
2019-03-04T08:36:10.504Z,93.20
2019-03-04T08:38:39.357Z,92.90
2019-03-04T08:44:04.425Z,93.20
2019-03-04T08:46:38.326Z,93.50
2019-03-04T08:49:07.303Z,93.40
2019-03-04T08:51:36.084Z,93.80
2019-03-04T08:54:04.877Z,93.00
2019-03-04T08:56:33.707Z,93.40
2019-03-04T08:59:05.243Z,93.60
2019-03-04T09:01:35.713Z,92.90
2019-03-04T09:04:04.756Z,93.00
2019-03-04T09:06:33.551Z,92.60
2019-03-04T09:09:07.228Z,92.60
2019-03-04T09:11:36.278Z,92.50
2019-03-04T09:14:07.187Z,92.00
2019-03-04T09:16:37.733Z,92.10
2019-03-04T09:19:06.523Z,92.10
2019-03-04T09:21:35.256Z,91.90
2019-03-04T09:24:04.079Z,91.70
2019-03-04T09:26:32.879Z,92.20
2019-03-04T09:29:02.009Z,92.00
2019-03-04T09:31:31.128Z,91.70
2019-03-04T09:33:59.784Z,91.70
2019-03-04T09:36:28.662Z,91.40
2019-03-04T09:38:57.476Z,92.00
2019-03-04T09:41:26.268Z,91.50
2019-03-04T09:43:55.058Z,91.10
2019-03-04T09:46:23.776Z,90.30
2019-03-04T09:48:52.461Z,90.80
2019-03-04T09:51:24.616Z,90.40
2019-03-04T09:53:53.524Z,90.10
2019-03-04T09:56:24.827Z,90.40
2019-03-04T09:58:53.889Z,90.30
2019-03-04T10:01:28.731Z,90.00
2019-03-04T10:04:01.475Z,90.20
2019-03-04T10:06:39.977Z,89.80
2019-03-04T10:09:37.391Z,88.10
2019-03-04T10:12:44.441Z,88.90
2019-03-04T10:15:22.038Z,88.80
2019-03-04T10:18:10.157Z,88.50
2019-03-04T10:20:59.051Z,86.70
2019-03-04T10:23:50.175Z,84.00
2019-03-04T10:26:59.457Z,85.70
2019-03-04T10:29:40.081Z,83.50
2019-03-04T10:32:14.403Z,83.90
2019-03-04T10:34:58.199Z,85.20
2019-03-04T10:37:41.579Z,82.80
2019-03-04T10:40:49.983Z,82.90
2019-03-04T10:49:48.381Z,82.20
2019-03-04T10:52:17.272Z,79.00
2019-03-04T10:54:45.959Z,77.60
2019-03-04T10:57:14.683Z,77.70
2019-03-04T10:59:43.397Z,78.90
2019-03-04T11:02:12.231Z,79.90
2019-03-04T11:04:40.976Z,78.40
2019-03-04T11:07:09.831Z,77.50
2019-03-04T11:09:38.509Z,76.50
2019-03-04T11:12:07.413Z,73.20
2019-03-04T11:14:44.969Z,75.50
2019-03-04T11:17:15.578Z,76.40
2019-03-04T11:22:40.390Z,71.40
2019-03-04T11:25:12.808Z,70.60
2019-03-04T11:27:41.710Z,69.40
2019-03-04T11:30:16.166Z,67.30
2019-03-04T11:32:45.003Z,68.20
2019-03-04T11:35:15.239Z,66.60
2019-03-04T11:37:45.226Z,68.30
2019-03-04T11:40:22.089Z,64.90
2019-03-04T11:42:50.714Z,62.70
2019-03-04T11:45:19.522Z,63.40
2019-03-04T11:47:48.410Z,63.00
2019-03-04T11:50:17.684Z,62.50
2019-03-04T11:52:46.534Z,62.40
2019-03-04T11:55:18.548Z,62.00
2019-03-04T11:57:47.282Z,59.10
2019-03-04T12:00:22.808Z,60.30
2019-03-04T12:02:51.747Z,59.30
2019-03-04T12:05:20.528Z,57.90
2019-03-04T12:07:49.277Z,59.20
2019-03-04T12:10:18.625Z,58.50
2019-03-04T12:12:47.632Z,60.60
2019-03-04T12:15:18.422Z,61.40
2019-03-04T12:17:47.574Z,61.70
2019-03-04T12:20:16.788Z,61.30
2019-03-04T12:22:45.437Z,57.70
2019-03-04T12:25:19.040Z,59.10
2019-03-04T12:27:47.822Z,60.30
2019-03-04T12:30:19.415Z,60.70
2019-03-04T12:33:06.848Z,59.80
2019-03-04T12:35:28.711Z,60.40
2019-03-04T12:38:12.930Z,60.80
2019-03-04T12:40:56.248Z,58.50
2019-03-04T12:43:43.171Z,59.30
2019-03-04T12:46:17.752Z,59.10
2019-03-04T12:49:00.133Z,59.20
2019-03-04T12:51:28.690Z,61.40
2019-03-04T12:54:02.114Z,62.00
2019-03-04T12:56:31.468Z,62.00
2019-03-04T12:59:01.772Z,57.30
2019-03-04T13:01:32.278Z,57.00
2019-03-04T13:04:01.180Z,55.80
2019-03-04T13:06:29.972Z,57.50
2019-03-04T13:08:58.794Z,59.30
2019-03-04T13:11:27.541Z,58.90
2019-03-04T13:14:03.798Z,59.30
2019-03-04T13:16:32.593Z,59.20
2019-03-04T13:19:07.579Z,58.70
2019-03-04T13:21:36.317Z,58.50
2019-03-04T13:24:05.432Z,59.20
2019-03-04T13:26:34.231Z,59.20
2019-03-04T13:29:04.962Z,58.70
2019-03-04T13:31:33.508Z,59.90
2019-03-04T13:34:03.351Z,60.90
2019-03-04T13:36:33.764Z,59.60
2019-03-04T13:39:07.860Z,58.70
2019-03-04T13:41:36.896Z,56.70
2019-03-04T13:44:05.817Z,55.30
2019-03-04T13:46:34.680Z,55.50
2019-03-04T13:49:09.974Z,52.50
2019-03-04T13:51:51.548Z,52.70
2019-03-04T13:54:25.964Z,52.60
2019-03-04T14:03:43.269Z,53.30
2019-03-04T14:06:11.572Z,54.00
2019-03-04T14:08:54.609Z,51.30
2019-03-04T14:11:25.757Z,52.10
2019-03-04T14:14:08.166Z,51.40
2019-03-04T14:16:36.089Z,52.00
2019-03-04T14:19:10.102Z,52.30
2019-03-04T14:21:43.614Z,55.00
2019-03-04T14:24:12.334Z,53.80
2019-03-04T14:26:41.180Z,54.00
2019-03-04T14:29:09.998Z,55.40
2019-03-04T14:31:38.542Z,55.90
2019-03-04T14:34:07.505Z,57.60
2019-03-04T14:36:43.559Z,59.80
2019-03-04T14:39:14.573Z,60.00
2019-03-04T14:41:43.377Z,60.70
2019-03-04T14:44:19.243Z,61.70
2019-03-04T14:46:47.974Z,62.60
2019-03-04T14:49:26.009Z,64.30
2019-03-04T14:52:09.202Z,64.70
2019-03-04T14:54:36.774Z,65.20
2019-03-04T15:00:10.594Z,64.20
2019-03-04T15:02:33.212Z,65.80
2019-03-04T15:05:08.422Z,66.20
2019-03-04T15:07:38.962Z,64.90
2019-03-04T15:10:09.410Z,65.70
2019-03-04T15:12:39.747Z,65.60
2019-03-04T15:15:14.479Z,65.10
2019-03-04T15:17:43.142Z,66.70
2019-03-04T15:20:28.882Z,65.70
2019-03-04T15:23:02.907Z,65.40
2019-03-04T15:25:37.453Z,63.80
2019-03-04T15:28:27.261Z,64.30
2019-03-04T15:31:11.587Z,63.70
2019-03-04T15:33:42.743Z,65.50
2019-03-04T15:36:11.518Z,66.10
2019-03-04T15:38:41.831Z,65.20
2019-03-04T15:41:11.141Z,64.40
2019-03-04T15:43:39.984Z,65.10
2019-03-04T15:46:08.680Z,65.50
2019-03-04T15:48:37.446Z,66.50
2019-03-04T15:51:06.190Z,66.90
2019-03-04T15:53:35.036Z,65.70
2019-03-04T15:56:03.766Z,66.60
2019-03-04T15:58:36.274Z,66.20
2019-03-04T16:01:05.530Z,64.10
2019-03-04T16:03:59.944Z,63.70
2019-03-04T16:06:28.877Z,63.70
2019-03-04T16:08:57.874Z,63.50
2019-03-04T16:11:26.891Z,64.60
2019-03-04T16:13:56.295Z,64.60
2019-03-04T16:16:26.060Z,64.70
2019-03-04T16:18:54.954Z,65.50
2019-03-04T16:21:23.658Z,65.40
2019-03-04T16:23:56.994Z,65.60
2019-03-04T16:26:25.880Z,65.40
2019-03-04T16:28:54.703Z,64.50
2019-03-04T16:31:25.236Z,65.10
2019-03-04T16:33:56.842Z,63.50
2019-03-04T16:36:25.530Z,64.70
2019-03-04T16:38:54.260Z,65.40
2019-03-04T16:41:22.956Z,66.10
2019-03-04T16:43:51.734Z,66.30
2019-03-04T16:46:20.468Z,65.80
2019-03-04T16:48:49.203Z,66.20
2019-03-04T16:51:17.954Z,66.60
2019-03-04T16:53:46.845Z,66.80
2019-03-04T16:56:15.699Z,66.80
2019-03-04T16:58:50.190Z,67.30
2019-03-04T17:01:18.977Z,67.40
2019-03-04T17:03:47.656Z,68.20
2019-03-04T17:06:17.384Z,68.30
2019-03-04T17:08:47.729Z,69.60
2019-03-04T17:11:16.464Z,70.60
2019-03-04T17:13:45.320Z,71.20
2019-03-04T17:16:14.042Z,73.40
2019-03-04T17:18:42.805Z,74.80
2019-03-04T17:21:11.479Z,79.40
2019-03-04T17:23:40.182Z,85.00
2019-03-04T17:26:09.148Z,86.50
2019-03-04T17:28:37.842Z,88.50
2019-03-04T17:31:06.776Z,89.20
2019-03-04T17:33:35.531Z,89.30
2019-03-04T17:36:13.961Z,90.00
2019-03-04T17:38:50.592Z,90.10
2019-03-04T17:41:23.030Z,90.70
2019-03-04T17:43:53.372Z,90.80
2019-03-04T17:46:25.377Z,90.40
2019-03-04T17:48:54.302Z,90.40
2019-03-04T17:51:23.986Z,90.10
2019-03-04T17:53:54.282Z,90.00
2019-03-04T17:56:30.466Z,90.10
2019-03-04T17:59:07.438Z,89.80
2019-03-04T18:01:36.354Z,89.30
2019-03-04T18:04:05.463Z,89.70
2019-03-04T18:06:40.649Z,89.40
2019-03-04T18:09:09.388Z,89.10
2019-03-04T18:11:38.248Z,89.10
2019-03-04T18:14:08.366Z,89.40
2019-03-04T18:16:41.778Z,88.70
2019-03-04T18:19:10.633Z,88.80
2019-03-04T18:21:39.349Z,87.80
2019-03-04T18:24:07.968Z,87.80
2019-03-04T18:26:39.918Z,87.80
2019-03-04T18:29:23.643Z,88.30
2019-03-04T18:32:04.024Z,87.80
2019-03-04T18:34:47.627Z,88.00
2019-03-04T18:37:40.838Z,88.20
2019-03-04T18:40:33.826Z,88.90
2019-03-04T18:43:11.433Z,88.20
2019-03-04T18:46:13.071Z,89.00
2019-03-04T18:48:58.424Z,88.50
2019-03-04T18:51:27.924Z,89.50
2019-03-04T18:53:59.601Z,88.70
2019-03-04T18:59:20.530Z,89.00
2019-03-04T19:01:49.545Z,89.10
2019-03-04T19:04:18.290Z,88.90
2019-03-04T19:06:47.150Z,89.20
2019-03-04T19:09:16.024Z,88.90
2019-03-04T19:11:44.768Z,89.40
2019-03-04T19:14:13.795Z,89.70
2019-03-04T19:16:43.152Z,89.20
2019-03-04T19:19:13.756Z,89.20
2019-03-04T19:21:42.626Z,88.10
2019-03-04T19:24:11.396Z,88.40
2019-03-04T19:26:40.172Z,87.10
2019-03-04T19:29:10.843Z,87.10
2019-03-04T19:31:42.593Z,86.70
2019-03-04T19:34:11.521Z,86.50
2019-03-04T19:36:40.485Z,85.30
2019-03-04T19:39:09.402Z,85.40
2019-03-04T19:41:38.462Z,85.50
2019-03-04T19:44:07.437Z,85.20
2019-03-04T19:46:37.871Z,85.00
2019-03-04T19:49:09.414Z,84.90
2019-03-04T19:51:38.198Z,84.50
2019-03-04T19:54:07.172Z,84.70
2019-03-04T19:56:48.326Z,83.90
2019-03-04T19:59:16.914Z,84.40
2019-03-04T20:01:48.935Z,84.40
2019-03-04T20:04:17.791Z,84.20
2019-03-04T20:06:46.779Z,84.60
2019-03-04T20:09:15.550Z,84.60
2019-03-04T20:11:44.458Z,84.40
2019-03-04T20:14:13.283Z,84.90
2019-03-04T20:16:42.186Z,84.60
2019-03-04T20:19:11.151Z,84.90
2019-03-04T20:21:40.009Z,84.60
2019-03-04T20:24:21.057Z,85.30
2019-03-04T20:26:57.231Z,85.30
2019-03-04T20:29:32.099Z,86.10
2019-03-04T20:32:14.929Z,85.60
2019-03-04T20:34:49.238Z,84.80
2019-03-04T20:37:28.021Z,85.80
2019-03-04T20:40:03.549Z,86.40
2019-03-04T20:42:35.083Z,86.70
2019-03-04T20:45:05.515Z,86.20
2019-03-04T20:47:37.941Z,84.90
2019-03-04T20:50:12.927Z,84.90
2019-03-04T20:52:55.277Z,84.00
2019-03-04T20:55:24.233Z,82.80
2019-03-04T20:57:53.061Z,81.80
2019-03-04T21:00:36.106Z,82.00
2019-03-04T21:03:09.345Z,81.40
2019-03-04T21:05:39.452Z,81.00
2019-03-04T21:08:08.345Z,80.90
2019-03-04T21:10:40.334Z,81.10
2019-03-04T21:13:13.915Z,80.40
2019-03-04T21:15:42.721Z,80.40
2019-03-04T21:18:11.492Z,80.50
2019-03-04T21:20:40.323Z,80.00
2019-03-04T21:23:14.922Z,80.30
2019-03-04T21:25:58.311Z,80.80
2019-03-04T21:28:57.446Z,81.30
2019-03-04T21:31:36.355Z,82.20
2019-03-04T21:40:58.133Z,81.70
2019-03-04T21:43:40.077Z,80.40
2019-03-04T21:49:06.271Z,76.70
2019-03-04T21:54:47.034Z,75.30
2019-03-04T22:03:50.703Z,73.90
2019-03-04T22:06:27.760Z,74.60
2019-03-04T22:09:02.655Z,75.50
2019-03-04T22:11:36.287Z,75.50
2019-03-04T22:14:13.098Z,75.90
2019-03-04T22:16:42.712Z,75.20
2019-03-04T22:19:11.583Z,75.80
2019-03-04T22:21:40.610Z,74.90
2019-03-04T22:24:09.525Z,74.60
2019-03-04T22:26:38.722Z,74.30
2019-03-04T22:29:07.580Z,73.70
2019-03-04T22:31:36.543Z,74.00
2019-03-04T22:34:05.998Z,74.70
2019-03-04T22:36:34.920Z,74.20
2019-03-04T22:39:06.367Z,74.70
2019-03-04T22:41:35.180Z,75.40
2019-03-04T22:44:04.019Z,75.90
2019-03-04T22:46:33.276Z,76.70
2019-03-04T22:49:07.419Z,77.00
2019-03-04T22:51:36.302Z,77.80
2019-03-04T22:54:05.014Z,78.00
2019-03-04T22:56:33.668Z,78.60
2019-03-04T22:59:02.516Z,79.00
2019-03-04T23:01:56.742Z,79.60
2019-03-04T23:04:25.498Z,80.10
2019-03-04T23:07:02.716Z,80.90
2019-03-04T23:30:16.500Z,85.90
2019-03-04T23:32:59.038Z,86.50
2019-03-04T23:35:29.568Z,86.60
2019-03-04T23:37:58.590Z,86.90
2019-03-04T23:40:48.534Z,86.70
2019-03-04T23:43:43.009Z,87.20
2019-03-04T23:46:14.765Z,87.30
2019-03-04T23:48:43.409Z,87.70
2019-03-04T23:51:12.165Z,87.50
2019-03-04T23:53:40.999Z,87.70
2019-03-04T23:56:09.744Z,87.70
2019-03-04T23:58:38.478Z,87.60
